TimeNZDT,TemperatureF,Dew PointF,Humidity,Sea Level PressureIn,VisibilityMPH,Wind Direction,Wind SpeedMPH,Gust SpeedMPH,PrecipitationIn,Events,Conditions,WindDirDegrees,DateUTC
12:00 AM,51.8,33.8,50,29.62,6.2,NW,10.4,-,N/A,,Unknown,310,2013-10-25 11:00:00
12:30 AM,50.0,33.8,54,29.62,6.2,NW,6.9,-,N/A,,Unknown,320,2013-10-25 11:30:00
1:00 AM,48.2,35.6,62,29.62,6.2,NNW,8.1,-,N/A,,Unknown,330,2013-10-25 12:00:00
1:30 AM,51.8,35.6,54,29.62,6.2,NW,11.5,-,N/A,,Unknown,320,2013-10-25 12:30:00
2:00 AM,53.6,33.8,47,29.62,6.2,NW,12.7,-,N/A,,Unknown,320,2013-10-25 13:00:00
2:30 AM,53.6,35.6,51,29.65,6.2,NW,12.7,-,N/A,,Unknown,320,2013-10-25 13:30:00
3:00 AM,55.4,35.6,47,29.62,6.2,NW,16.1,27.6,N/A,,Unknown,320,2013-10-25 14:00:00
3:30 AM,53.6,37.4,54,29.62,6.2,NW,15.0,-,N/A,,Unknown,320,2013-10-25 14:30:00
4:00 AM,51.8,37.4,58,29.62,6.2,NW,11.5,-,N/A,,Unknown,320,2013-10-25 15:00:00
4:30 AM,51.8,37.4,58,29.65,6.2,NNW,10.4,-,N/A,,Unknown,330,2013-10-25 15:30:00
5:00 AM,46.4,35.6,66,29.62,6.2,NNE,5.8,-,N/A,,Unknown,30,2013-10-25 16:00:00
5:30 AM,42.8,35.6,76,29.62,6.2,ENE,6.9,-,N/A,,Unknown,60,2013-10-25 16:30:00
6:00 AM,42.8,35.6,76,29.62,6.2,NE,4.6,-,N/A,,Unknown,40,2013-10-25 17:00:00
6:30 AM,42.8,37.4,81,29.62,6.2,NE,3.5,-,N/A,,Unknown,50,2013-10-25 17:30:00
7:00 AM,51.8,39.2,62,29.62,6.2,North,10.4,-,N/A,,Unknown,350,2013-10-25 18:00:00
7:30 AM,51.8,39.2,62,29.62,6.2,North,10.4,-,N/A,,Unknown,10,2013-10-25 18:30:00
8:00 AM,55.4,39.2,54,29.62,6.2,North,16.1,-,N/A,,Unknown,10,2013-10-25 19:00:00
8:30 AM,57.2,41.0,55,29.59,6.2,North,18.4,-,N/A,,Unknown,10,2013-10-25 19:30:00
9:00 AM,59.0,41.0,51,29.59,6.2,NNE,18.4,29.9,N/A,,Unknown,20,2013-10-25 20:00:00
9:30 AM,59.0,42.8,55,29.59,6.2,North,11.5,-,N/A,,Unknown,360,2013-10-25 20:30:00
10:00 AM,60.8,44.6,55,29.59,6.2,NNE,12.7,-,N/A,,Unknown,20,2013-10-25 21:00:00
10:30 AM,64.4,44.6,49,29.59,6.2,North,3.5,-,N/A,,Partly Cloudy,10,2013-10-25 21:30:00
11:00 AM,64.4,41.0,42,29.59,6.2,NW,4.6,-,N/A,,Unknown,310,2013-10-25 22:00:00
11:30 AM,66.2,39.2,37,29.59,6.2,NW,23.0,-,N/A,,Partly Cloudy,320,2013-10-25 22:30:00
12:00 PM,64.4,41.0,42,29.56,6.2,NNW,26.5,48.3,N/A,,Unknown,330,2013-10-25 23:00:00
12:30 PM,64.4,42.8,45,29.56,6.2,NNW,23.0,39.1,N/A,,Unknown,330,2013-10-25 23:30:00
1:00 PM,64.4,41.0,42,29.53,6.2,NW,20.7,35.7,N/A,,Unknown,320,2013-10-26 00:00:00
1:30 PM,62.6,42.8,48,29.53,6.2,NW,27.6,43.7,N/A,,Unknown,310,2013-10-26 00:30:00
2:00 PM,64.4,42.8,45,29.50,6.2,NW,28.8,42.6,N/A,,Unknown,310,2013-10-26 01:00:00
2:30 PM,62.6,42.8,48,29.50,6.2,NW,32.2,48.3,N/A,,Unknown,310,2013-10-26 01:30:00
3:00 PM,62.6,42.8,48,29.53,6.2,NW,33.4,51.8,N/A,,Unknown,310,2013-10-26 02:00:00
3:30 PM,64.4,44.6,49,29.50,6.2,WNW,27.6,42.6,N/A,,Unknown,300,2013-10-26 02:30:00
4:00 PM,64.4,44.6,49,29.50,6.2,WNW,21.9,34.5,N/A,,Unknown,300,2013-10-26 03:00:00
4:30 PM,62.6,44.6,52,29.50,6.2,NW,25.3,38.0,N/A,,Unknown,310,2013-10-26 03:30:00
5:00 PM,62.6,44.6,52,29.50,6.2,NW,24.2,36.8,N/A,,Unknown,310,2013-10-26 04:00:00
5:30 PM,62.6,44.6,52,29.47,6.2,NW,26.5,40.3,N/A,,Unknown,310,2013-10-26 04:30:00
6:00 PM,60.8,44.6,55,29.47,6.2,NW,27.6,41.4,N/A,,Unknown,310,2013-10-26 05:00:00
6:30 PM,60.8,42.8,52,29.47,6.2,WNW,20.7,38.0,N/A,,Unknown,300,2013-10-26 05:30:00
7:00 PM,59.0,42.8,55,29.47,6.2,NW,27.6,44.9,N/A,,Unknown,310,2013-10-26 06:00:00
7:30 PM,57.2,42.8,59,29.47,6.2,NW,28.8,43.7,N/A,,Unknown,310,2013-10-26 06:30:00
8:00 PM,57.2,41.0,55,29.50,6.2,NW,18.4,29.9,N/A,,Unknown,310,2013-10-26 07:00:00
8:30 PM,55.4,42.8,63,29.47,6.2,NW,25.3,-,N/A,,Unknown,310,2013-10-26 07:30:00
9:00 PM,55.4,42.8,63,29.50,6.2,NNW,25.3,38.0,N/A,,Unknown,330,2013-10-26 08:00:00
9:30 PM,53.6,42.8,67,29.50,6.2,NW,25.3,36.8,N/A,,Unknown,320,2013-10-26 08:30:00
10:00 PM,55.4,42.8,63,29.47,6.2,NW,27.6,-,N/A,Rain,Light Rain Showers,320,2013-10-26 09:00:00
10:30 PM,55.4,41.0,58,29.47,6.2,NNW,27.6,43.7,N/A,,Unknown,330,2013-10-26 09:30:00
11:00 PM,53.6,41.0,62,29.50,6.2,NNW,18.4,-,N/A,,Unknown,330,2013-10-26 10:00:00
11:30 PM,53.6,42.8,67,29.47,6.2,NNW,17.3,-,N/A,,Unknown,330,2013-10-26 10:30:00